sensor_id;sensor_type;location;lat;lon;timestamp;P1;durP1;ratioP1;P2;durP2;ratioP2
53801;SDS011;39709;53.334;6.534;2022-11-15T00:00:03;32.67;;;14.70;;
53801;SDS011;39709;53.334;6.534;2022-11-15T00:02:30;30.57;;;14.93;;
53801;SDS011;39709;53.334;6.534;2022-11-15T00:04:55;29.00;;;14.77;;
53801;SDS011;39709;53.334;6.534;2022-11-15T00:07:21;30.80;;;15.10;;
53801;SDS011;39709;53.334;6.534;2022-11-15T00:09:47;32.85;;;15.25;;
53801;SDS011;39709;53.334;6.534;2022-11-15T00:12:12;32.27;;;15.23;;
53801;SDS011;39709;53.334;6.534;2022-11-15T00:14:38;31.92;;;15.27;;
53801;SDS011;39709;53.334;6.534;2022-11-15T00:17:04;29.97;;;14.47;;
53801;SDS011;39709;53.334;6.534;2022-11-15T00:19:29;31.17;;;15.13;;
53801;SDS011;39709;53.334;6.534;2022-11-15T00:21:55;31.63;;;15.33;;
53801;SDS011;39709;53.334;6.534;2022-11-15T00:24:20;29.80;;;15.20;;
53801;SDS011;39709;53.334;6.534;2022-11-15T00:26:46;30.67;;;14.73;;
53801;SDS011;39709;53.334;6.534;2022-11-15T00:29:12;31.08;;;15.63;;
53801;SDS011;39709;53.334;6.534;2022-11-15T00:31:38;29.93;;;14.77;;
53801;SDS011;39709;53.334;6.534;2022-11-15T00:34:03;30.17;;;14.48;;
53801;SDS011;39709;53.334;6.534;2022-11-15T00:36:32;30.77;;;15.13;;
53801;SDS011;39709;53.334;6.534;2022-11-15T00:38:59;29.60;;;13.85;;
53801;SDS011;39709;53.334;6.534;2022-11-15T00:41:25;29.63;;;14.37;;
53801;SDS011;39709;53.334;6.534;2022-11-15T00:43:50;30.33;;;14.48;;
53801;SDS011;39709;53.334;6.534;2022-11-15T00:46:16;31.40;;;14.63;;
53801;SDS011;39709;53.334;6.534;2022-11-15T00:48:42;30.27;;;14.70;;
53801;SDS011;39709;53.334;6.534;2022-11-15T00:51:07;28.23;;;14.50;;
53801;SDS011;39709;53.334;6.534;2022-11-15T00:53:33;28.73;;;14.23;;
53801;SDS011;39709;53.334;6.534;2022-11-15T00:55:59;29.20;;;13.80;;
53801;SDS011;39709;53.334;6.534;2022-11-15T00:58:25;27.48;;;13.68;;
53801;SDS011;39709;53.334;6.534;2022-11-15T01:00:51;32.77;;;14.80;;
53801;SDS011;39709;53.334;6.534;2022-11-15T01:03:16;31.08;;;14.88;;
53801;SDS011;39709;53.334;6.534;2022-11-15T01:05:42;30.13;;;15.20;;
53801;SDS011;39709;53.334;6.534;2022-11-15T01:08:14;32.58;;;15.07;;
53801;SDS011;39709;53.334;6.534;2022-11-15T01:10:41;30.23;;;14.07;;
53801;SDS011;39709;53.334;6.534;2022-11-15T01:13:07;29.75;;;14.57;;
53801;SDS011;39709;53.334;6.534;2022-11-15T01:15:33;30.27;;;14.18;;
53801;SDS011;39709;53.334;6.534;2022-11-15T01:17:58;31.20;;;15.17;;
53801;SDS011;39709;53.334;6.534;2022-11-15T01:20:24;31.83;;;15.20;;
53801;SDS011;39709;53.334;6.534;2022-11-15T01:22:49;28.53;;;14.73;;
53801;SDS011;39709;53.334;6.534;2022-11-15T01:25:15;30.08;;;15.15;;
53801;SDS011;39709;53.334;6.534;2022-11-15T01:27:41;31.60;;;15.47;;
53801;SDS011;39709;53.334;6.534;2022-11-15T01:30:07;30.33;;;15.07;;
53801;SDS011;39709;53.334;6.534;2022-11-15T01:32:33;29.60;;;14.60;;
53801;SDS011;39709;53.334;6.534;2022-11-15T01:34:59;29.87;;;13.90;;
53801;SDS011;39709;53.334;6.534;2022-11-15T01:37:25;29.58;;;14.23;;
53801;SDS011;39709;53.334;6.534;2022-11-15T01:39:50;31.80;;;14.50;;
53801;SDS011;39709;53.334;6.534;2022-11-15T01:42:16;29.65;;;14.45;;
53801;SDS011;39709;53.334;6.534;2022-11-15T01:44:44;29.33;;;15.00;;
53801;SDS011;39709;53.334;6.534;2022-11-15T01:47:14;32.58;;;15.50;;
53801;SDS011;39709;53.334;6.534;2022-11-15T01:49:52;29.77;;;14.68;;
53801;SDS011;39709;53.334;6.534;2022-11-15T01:52:19;31.27;;;15.32;;
53801;SDS011;39709;53.334;6.534;2022-11-15T01:54:48;31.98;;;15.40;;
53801;SDS011;39709;53.334;6.534;2022-11-15T01:57:17;27.00;;;13.97;;
53801;SDS011;39709;53.334;6.534;2022-11-15T01:59:43;22.33;;;10.38;;
53801;SDS011;39709;53.334;6.534;2022-11-15T02:02:10;16.30;;;7.45;;
53801;SDS011;39709;53.334;6.534;2022-11-15T02:04:43;30.40;;;13.90;;
53801;SDS011;39709;53.334;6.534;2022-11-15T02:07:12;31.37;;;13.83;;
53801;SDS011;39709;53.334;6.534;2022-11-15T02:09:40;17.38;;;6.63;;
53801;SDS011;39709;53.334;6.534;2022-11-15T02:12:07;24.05;;;10.85;;
53801;SDS011;39709;53.334;6.534;2022-11-15T02:14:34;19.10;;;9.07;;
53801;SDS011;39709;53.334;6.534;2022-11-15T02:19:36;17.83;;;7.90;;
53801;SDS011;39709;53.334;6.534;2022-11-15T02:30:56;25.65;;;10.50;;
53801;SDS011;39709;53.334;6.534;2022-11-15T02:38:31;28.75;;;14.35;;
53801;SDS011;39709;53.334;6.534;2022-11-15T02:41:09;23.63;;;10.67;;
53801;SDS011;39709;53.334;6.534;2022-11-15T02:43:41;26.58;;;13.02;;
53801;SDS011;39709;53.334;6.534;2022-11-15T02:46:23;28.83;;;13.60;;
53801;SDS011;39709;53.334;6.534;2022-11-15T02:49:16;27.30;;;13.25;;
53801;SDS011;39709;53.334;6.534;2022-11-15T02:51:43;23.45;;;8.82;;
53801;SDS011;39709;53.334;6.534;2022-11-15T02:54:12;27.53;;;12.57;;
53801;SDS011;39709;53.334;6.534;2022-11-15T02:56:43;20.70;;;8.15;;
53801;SDS011;39709;53.334;6.534;2022-11-15T02:59:20;26.40;;;12.13;;
53801;SDS011;39709;53.334;6.534;2022-11-15T03:02:05;28.83;;;12.75;;
53801;SDS011;39709;53.334;6.534;2022-11-15T03:04:58;23.63;;;9.40;;
53801;SDS011;39709;53.334;6.534;2022-11-15T03:07:56;21.03;;;8.77;;
53801;SDS011;39709;53.334;6.534;2022-11-15T03:21:47;17.27;;;5.90;;
53801;SDS011;39709;53.334;6.534;2022-11-15T03:24:16;32.35;;;11.82;;
53801;SDS011;39709;53.334;6.534;2022-11-15T03:26:45;25.63;;;11.77;;
53801;SDS011;39709;53.334;6.534;2022-11-15T03:29:15;30.42;;;13.32;;
53801;SDS011;39709;53.334;6.534;2022-11-15T03:31:49;32.55;;;13.40;;
53801;SDS011;39709;53.334;6.534;2022-11-15T03:36:50;29.25;;;12.80;;
53801;SDS011;39709;53.334;6.534;2022-11-15T03:39:17;31.13;;;12.73;;
53801;SDS011;39709;53.334;6.534;2022-11-15T03:49:31;33.25;;;13.40;;
53801;SDS011;39709;53.334;6.534;2022-11-15T03:51:59;31.95;;;13.95;;
53801;SDS011;39709;53.334;6.534;2022-11-15T03:54:26;32.63;;;13.18;;
53801;SDS011;39709;53.334;6.534;2022-11-15T03:56:52;35.07;;;13.27;;
53801;SDS011;39709;53.334;6.534;2022-11-15T03:59:18;26.60;;;11.18;;
53801;SDS011;39709;53.334;6.534;2022-11-15T04:01:43;32.87;;;11.57;;
53801;SDS011;39709;53.334;6.534;2022-11-15T04:04:09;32.70;;;13.83;;
53801;SDS011;39709;53.334;6.534;2022-11-15T04:06:34;35.85;;;13.40;;
53801;SDS011;39709;53.334;6.534;2022-11-15T04:09:00;36.17;;;14.33;;
53801;SDS011;39709;53.334;6.534;2022-11-15T04:11:26;35.63;;;13.85;;
53801;SDS011;39709;53.334;6.534;2022-11-15T04:13:51;38.70;;;14.47;;
53801;SDS011;39709;53.334;6.534;2022-11-15T04:16:17;37.75;;;14.18;;
53801;SDS011;39709;53.334;6.534;2022-11-15T04:18:43;36.40;;;13.73;;
53801;SDS011;39709;53.334;6.534;2022-11-15T04:21:08;35.97;;;14.20;;
53801;SDS011;39709;53.334;6.534;2022-11-15T04:23:53;37.83;;;15.23;;
53801;SDS011;39709;53.334;6.534;2022-11-15T04:26:30;35.38;;;14.73;;
53801;SDS011;39709;53.334;6.534;2022-11-15T04:28:56;40.83;;;14.50;;
53801;SDS011;39709;53.334;6.534;2022-11-15T04:31:40;43.33;;;15.65;;
53801;SDS011;39709;53.334;6.534;2022-11-15T04:34:06;39.90;;;14.57;;
53801;SDS011;39709;53.334;6.534;2022-11-15T04:36:31;38.20;;;15.13;;
53801;SDS011;39709;53.334;6.534;2022-11-15T04:39:16;34.75;;;13.80;;
53801;SDS011;39709;53.334;6.534;2022-11-15T04:41:41;34.63;;;14.50;;
53801;SDS011;39709;53.334;6.534;2022-11-15T04:44:07;34.37;;;15.07;;
53801;SDS011;39709;53.334;6.534;2022-11-15T04:46:33;37.70;;;14.95;;
53801;SDS011;39709;53.334;6.534;2022-11-15T04:48:58;36.97;;;14.70;;
53801;SDS011;39709;53.334;6.534;2022-11-15T04:51:24;36.47;;;14.50;;
53801;SDS011;39709;53.334;6.534;2022-11-15T04:53:50;33.38;;;14.75;;
53801;SDS011;39709;53.334;6.534;2022-11-15T04:56:16;33.33;;;14.30;;
53801;SDS011;39709;53.334;6.534;2022-11-15T04:58:41;38.73;;;15.07;;
53801;SDS011;39709;53.334;6.534;2022-11-15T05:01:08;41.67;;;14.77;;
53801;SDS011;39709;53.334;6.534;2022-11-15T05:03:34;39.85;;;15.10;;
53801;SDS011;39709;53.334;6.534;2022-11-15T05:06:18;36.03;;;14.47;;
53801;SDS011;39709;53.334;6.534;2022-11-15T05:08:44;34.33;;;14.18;;
53801;SDS011;39709;53.334;6.534;2022-11-15T05:11:10;41.90;;;15.37;;
53801;SDS011;39709;53.334;6.534;2022-11-15T05:13:35;41.30;;;14.20;;
53801;SDS011;39709;53.334;6.534;2022-11-15T05:16:01;37.43;;;15.40;;
53801;SDS011;39709;53.334;6.534;2022-11-15T05:18:27;41.13;;;14.70;;
53801;SDS011;39709;53.334;6.534;2022-11-15T05:20:52;35.73;;;14.57;;
53801;SDS011;39709;53.334;6.534;2022-11-15T05:23:18;41.80;;;14.55;;
53801;SDS011;39709;53.334;6.534;2022-11-15T05:25:44;38.40;;;15.50;;
53801;SDS011;39709;53.334;6.534;2022-11-15T05:28:09;42.55;;;16.10;;
53801;SDS011;39709;53.334;6.534;2022-11-15T05:30:35;44.13;;;15.80;;
53801;SDS011;39709;53.334;6.534;2022-11-15T05:33:01;45.45;;;17.58;;
53801;SDS011;39709;53.334;6.534;2022-11-15T05:35:29;45.87;;;16.77;;
53801;SDS011;39709;53.334;6.534;2022-11-15T05:37:59;49.30;;;18.20;;
53801;SDS011;39709;53.334;6.534;2022-11-15T05:40:25;48.23;;;17.13;;
53801;SDS011;39709;53.334;6.534;2022-11-15T05:42:51;50.53;;;18.42;;
53801;SDS011;39709;53.334;6.534;2022-11-15T05:45:17;43.30;;;17.00;;
53801;SDS011;39709;53.334;6.534;2022-11-15T05:47:43;50.43;;;17.10;;
53801;SDS011;39709;53.334;6.534;2022-11-15T05:50:13;38.63;;;14.82;;
53801;SDS011;39709;53.334;6.534;2022-11-15T05:52:41;52.00;;;18.77;;
53801;SDS011;39709;53.334;6.534;2022-11-15T05:55:08;50.15;;;17.38;;
53801;SDS011;39709;53.334;6.534;2022-11-15T05:57:34;52.77;;;18.33;;
53801;SDS011;39709;53.334;6.534;2022-11-15T06:00:00;50.90;;;18.98;;
53801;SDS011;39709;53.334;6.534;2022-11-15T06:02:26;41.35;;;15.32;;
53801;SDS011;39709;53.334;6.534;2022-11-15T06:04:52;56.33;;;18.93;;
53801;SDS011;39709;53.334;6.534;2022-11-15T06:07:17;61.40;;;19.90;;
53801;SDS011;39709;53.334;6.534;2022-11-15T06:09:43;55.37;;;19.60;;
53801;SDS011;39709;53.334;6.534;2022-11-15T06:12:09;57.20;;;19.63;;
53801;SDS011;39709;53.334;6.534;2022-11-15T06:14:34;60.77;;;20.40;;
53801;SDS011;39709;53.334;6.534;2022-11-15T06:17:00;57.77;;;20.13;;
53801;SDS011;39709;53.334;6.534;2022-11-15T06:19:26;65.43;;;20.42;;
53801;SDS011;39709;53.334;6.534;2022-11-15T06:21:52;60.97;;;19.67;;
53801;SDS011;39709;53.334;6.534;2022-11-15T06:24:18;54.60;;;18.50;;
53801;SDS011;39709;53.334;6.534;2022-11-15T06:26:43;53.47;;;19.17;;
53801;SDS011;39709;53.334;6.534;2022-11-15T06:29:09;64.53;;;21.37;;
53801;SDS011;39709;53.334;6.534;2022-11-15T06:31:35;57.13;;;19.87;;
53801;SDS011;39709;53.334;6.534;2022-11-15T06:34:00;62.53;;;21.77;;
53801;SDS011;39709;53.334;6.534;2022-11-15T06:36:26;60.95;;;20.05;;
53801;SDS011;39709;53.334;6.534;2022-11-15T06:38:52;72.43;;;22.00;;
53801;SDS011;39709;53.334;6.534;2022-11-15T06:41:18;73.28;;;21.98;;
53801;SDS011;39709;53.334;6.534;2022-11-15T06:43:43;59.67;;;19.60;;
53801;SDS011;39709;53.334;6.534;2022-11-15T06:46:09;71.88;;;22.00;;
53801;SDS011;39709;53.334;6.534;2022-11-15T06:48:35;66.80;;;23.43;;
53801;SDS011;39709;53.334;6.534;2022-11-15T06:51:04;72.00;;;21.25;;
53801;SDS011;39709;53.334;6.534;2022-11-15T06:53:30;70.43;;;22.55;;
53801;SDS011;39709;53.334;6.534;2022-11-15T06:56:00;90.03;;;30.10;;
53801;SDS011;39709;53.334;6.534;2022-11-15T06:58:27;72.28;;;23.05;;
53801;SDS011;39709;53.334;6.534;2022-11-15T07:00:53;77.28;;;23.05;;
53801;SDS011;39709;53.334;6.534;2022-11-15T07:03:23;73.70;;;23.38;;
53801;SDS011;39709;53.334;6.534;2022-11-15T07:05:52;79.57;;;22.87;;
53801;SDS011;39709;53.334;6.534;2022-11-15T07:08:21;79.43;;;22.48;;
53801;SDS011;39709;53.334;6.534;2022-11-15T07:10:48;76.70;;;22.42;;
53801;SDS011;39709;53.334;6.534;2022-11-15T07:13:15;68.03;;;22.42;;
53801;SDS011;39709;53.334;6.534;2022-11-15T07:15:41;72.13;;;22.40;;
53801;SDS011;39709;53.334;6.534;2022-11-15T07:18:06;76.32;;;23.33;;
53801;SDS011;39709;53.334;6.534;2022-11-15T07:20:32;61.60;;;21.20;;
53801;SDS011;39709;53.334;6.534;2022-11-15T07:23:01;77.75;;;23.23;;
53801;SDS011;39709;53.334;6.534;2022-11-15T07:25:28;66.88;;;22.90;;
53801;SDS011;39709;53.334;6.534;2022-11-15T07:27:55;64.13;;;21.23;;
53801;SDS011;39709;53.334;6.534;2022-11-15T07:30:21;72.95;;;24.00;;
53801;SDS011;39709;53.334;6.534;2022-11-15T07:32:51;65.20;;;20.83;;
53801;SDS011;39709;53.334;6.534;2022-11-15T07:35:24;62.80;;;21.87;;
53801;SDS011;39709;53.334;6.534;2022-11-15T07:37:58;62.83;;;22.33;;
53801;SDS011;39709;53.334;6.534;2022-11-15T07:40:26;68.05;;;20.42;;
53801;SDS011;39709;53.334;6.534;2022-11-15T07:42:58;58.00;;;20.77;;
53801;SDS011;39709;53.334;6.534;2022-11-15T07:45:28;56.25;;;21.95;;
53801;SDS011;39709;53.334;6.534;2022-11-15T07:47:54;66.30;;;22.37;;
53801;SDS011;39709;53.334;6.534;2022-11-15T07:50:21;56.83;;;19.25;;
53801;SDS011;39709;53.334;6.534;2022-11-15T07:52:52;48.13;;;18.73;;
53801;SDS011;39709;53.334;6.534;2022-11-15T07:55:22;56.80;;;19.30;;
53801;SDS011;39709;53.334;6.534;2022-11-15T07:57:48;67.75;;;24.05;;
53801;SDS011;39709;53.334;6.534;2022-11-15T08:00:14;60.37;;;21.27;;
53801;SDS011;39709;53.334;6.534;2022-11-15T08:02:40;48.15;;;18.98;;
53801;SDS011;39709;53.334;6.534;2022-11-15T08:05:07;64.85;;;22.55;;
53801;SDS011;39709;53.334;6.534;2022-11-15T08:07:33;64.83;;;21.73;;
53801;SDS011;39709;53.334;6.534;2022-11-15T08:09:59;55.83;;;21.02;;
53801;SDS011;39709;53.334;6.534;2022-11-15T08:12:28;67.15;;;23.00;;
53801;SDS011;39709;53.334;6.534;2022-11-15T08:14:55;68.10;;;22.10;;
53801;SDS011;39709;53.334;6.534;2022-11-15T08:17:22;50.67;;;18.25;;
53801;SDS011;39709;53.334;6.534;2022-11-15T08:19:50;43.10;;;18.08;;
53801;SDS011;39709;53.334;6.534;2022-11-15T08:22:16;53.90;;;20.73;;
53801;SDS011;39709;53.334;6.534;2022-11-15T08:24:43;44.20;;;17.80;;
53801;SDS011;39709;53.334;6.534;2022-11-15T08:27:09;35.92;;;13.27;;
53801;SDS011;39709;53.334;6.534;2022-11-15T08:29:42;44.83;;;17.95;;
53801;SDS011;39709;53.334;6.534;2022-11-15T08:32:12;50.92;;;19.80;;
53801;SDS011;39709;53.334;6.534;2022-11-15T08:34:38;49.63;;;22.40;;
53801;SDS011;39709;53.334;6.534;2022-11-15T08:37:04;45.73;;;17.53;;
53801;SDS011;39709;53.334;6.534;2022-11-15T08:39:30;29.80;;;11.27;;
53801;SDS011;39709;53.334;6.534;2022-11-15T08:41:55;17.75;;;7.25;;
53801;SDS011;39709;53.334;6.534;2022-11-15T08:44:21;13.00;;;5.57;;
53801;SDS011;39709;53.334;6.534;2022-11-15T08:46:47;6.18;;;1.75;;
53801;SDS011;39709;53.334;6.534;2022-11-15T08:49:12;34.20;;;15.63;;
53801;SDS011;39709;53.334;6.534;2022-11-15T08:51:38;25.13;;;11.40;;
53801;SDS011;39709;53.334;6.534;2022-11-15T08:54:04;32.67;;;14.73;;
53801;SDS011;39709;53.334;6.534;2022-11-15T08:56:30;34.47;;;15.02;;
53801;SDS011;39709;53.334;6.534;2022-11-15T08:58:56;24.60;;;11.87;;
53801;SDS011;39709;53.334;6.534;2022-11-15T09:01:22;21.70;;;9.23;;
53801;SDS011;39709;53.334;6.534;2022-11-15T09:03:48;8.20;;;3.03;;
53801;SDS011;39709;53.334;6.534;2022-11-15T09:06:14;36.63;;;16.13;;
53801;SDS011;39709;53.334;6.534;2022-11-15T09:08:40;34.72;;;14.57;;
53801;SDS011;39709;53.334;6.534;2022-11-15T09:11:07;26.35;;;12.27;;
53801;SDS011;39709;53.334;6.534;2022-11-15T09:13:34;12.90;;;5.13;;
53801;SDS011;39709;53.334;6.534;2022-11-15T09:16:02;24.40;;;10.57;;
53801;SDS011;39709;53.334;6.534;2022-11-15T09:18:29;23.58;;;10.82;;
53801;SDS011;39709;53.334;6.534;2022-11-15T09:20:55;19.02;;;8.50;;
53801;SDS011;39709;53.334;6.534;2022-11-15T09:23:22;30.60;;;11.17;;
53801;SDS011;39709;53.334;6.534;2022-11-15T09:25:48;7.70;;;2.88;;
53801;SDS011;39709;53.334;6.534;2022-11-15T09:28:13;17.48;;;7.47;;
53801;SDS011;39709;53.334;6.534;2022-11-15T09:30:39;25.13;;;10.43;;
53801;SDS011;39709;53.334;6.534;2022-11-15T09:33:08;35.60;;;16.40;;
53801;SDS011;39709;53.334;6.534;2022-11-15T09:35:35;22.42;;;10.85;;
53801;SDS011;39709;53.334;6.534;2022-11-15T09:38:01;28.23;;;12.23;;
53801;SDS011;39709;53.334;6.534;2022-11-15T09:40:29;8.15;;;3.65;;
53801;SDS011;39709;53.334;6.534;2022-11-15T09:45:36;16.33;;;7.47;;
53801;SDS011;39709;53.334;6.534;2022-11-15T09:56:35;22.90;;;11.33;;
53801;SDS011;39709;53.334;6.534;2022-11-15T09:59:13;20.92;;;10.70;;
53801;SDS011;39709;53.334;6.534;2022-11-15T10:04:41;24.45;;;10.73;;
53801;SDS011;39709;53.334;6.534;2022-11-15T10:07:26;21.10;;;9.48;;
53801;SDS011;39709;53.334;6.534;2022-11-15T10:10:04;15.03;;;7.00;;
53801;SDS011;39709;53.334;6.534;2022-11-15T10:12:45;17.25;;;8.00;;
53801;SDS011;39709;53.334;6.534;2022-11-15T10:15:15;18.92;;;9.60;;
53801;SDS011;39709;53.334;6.534;2022-11-15T10:22:50;6.27;;;2.37;;
53801;SDS011;39709;53.334;6.534;2022-11-15T10:28:10;10.45;;;5.00;;
53801;SDS011;39709;53.334;6.534;2022-11-15T10:30:51;12.60;;;6.18;;
53801;SDS011;39709;53.334;6.534;2022-11-15T10:33:37;21.33;;;10.43;;
53801;SDS011;39709;53.334;6.534;2022-11-15T10:36:13;22.57;;;11.13;;
53801;SDS011;39709;53.334;6.534;2022-11-15T10:44:02;22.48;;;11.43;;
53801;SDS011;39709;53.334;6.534;2022-11-15T10:46:35;21.77;;;10.25;;
53801;SDS011;39709;53.334;6.534;2022-11-15T10:51:51;19.90;;;10.48;;
53801;SDS011;39709;53.334;6.534;2022-11-15T10:54:47;13.25;;;5.07;;
53801;SDS011;39709;53.334;6.534;2022-11-15T10:57:17;16.80;;;8.13;;
53801;SDS011;39709;53.334;6.534;2022-11-15T10:59:53;13.00;;;5.55;;
53801;SDS011;39709;53.334;6.534;2022-11-15T11:02:27;15.20;;;7.20;;
53801;SDS011;39709;53.334;6.534;2022-11-15T11:04:53;20.33;;;8.45;;
53801;SDS011;39709;53.334;6.534;2022-11-15T11:07:20;14.57;;;7.28;;
53801;SDS011;39709;53.334;6.534;2022-11-15T11:09:58;22.30;;;10.82;;
53801;SDS011;39709;53.334;6.534;2022-11-15T11:12:31;7.23;;;2.43;;
53801;SDS011;39709;53.334;6.534;2022-11-15T11:14:59;18.88;;;9.90;;
53801;SDS011;39709;53.334;6.534;2022-11-15T11:17:32;20.35;;;11.48;;
53801;SDS011;39709;53.334;6.534;2022-11-15T11:20:12;16.77;;;8.73;;
53801;SDS011;39709;53.334;6.534;2022-11-15T11:33:52;20.08;;;10.20;;
53801;SDS011;39709;53.334;6.534;2022-11-15T11:36:25;20.90;;;9.63;;
53801;SDS011;39709;53.334;6.534;2022-11-15T11:42:58;23.27;;;11.20;;
53801;SDS011;39709;53.334;6.534;2022-11-15T11:47:40;19.13;;;10.32;;
53801;SDS011;39709;53.334;6.534;2022-11-15T11:50:13;22.70;;;11.68;;
53801;SDS011;39709;53.334;6.534;2022-11-15T11:52:54;23.33;;;11.17;;
53801;SDS011;39709;53.334;6.534;2022-11-15T11:55:32;21.52;;;10.77;;
53801;SDS011;39709;53.334;6.534;2022-11-15T12:00:47;19.55;;;10.48;;
53801;SDS011;39709;53.334;6.534;2022-11-15T12:09:11;16.20;;;7.65;;
53801;SDS011;39709;53.334;6.534;2022-11-15T12:11:48;17.83;;;8.38;;
53801;SDS011;39709;53.334;6.534;2022-11-15T12:14:31;18.75;;;9.27;;
53801;SDS011;39709;53.334;6.534;2022-11-15T12:17:10;14.95;;;6.30;;
53801;SDS011;39709;53.334;6.534;2022-11-15T12:19:37;9.00;;;4.60;;
53801;SDS011;39709;53.334;6.534;2022-11-15T12:22:08;11.55;;;5.40;;
53801;SDS011;39709;53.334;6.534;2022-11-15T12:24:53;10.88;;;5.10;;
53801;SDS011;39709;53.334;6.534;2022-11-15T12:30:08;12.13;;;5.82;;
53801;SDS011;39709;53.334;6.534;2022-11-15T12:32:58;13.03;;;6.57;;
53801;SDS011;39709;53.334;6.534;2022-11-15T12:35:34;12.77;;;6.25;;
53801;SDS011;39709;53.334;6.534;2022-11-15T12:38:02;13.80;;;5.70;;
53801;SDS011;39709;53.334;6.534;2022-11-15T12:40:35;10.75;;;5.65;;
53801;SDS011;39709;53.334;6.534;2022-11-15T12:43:05;9.50;;;4.93;;
53801;SDS011;39709;53.334;6.534;2022-11-15T12:45:41;13.60;;;5.10;;
53801;SDS011;39709;53.334;6.534;2022-11-15T13:11:59;12.57;;;4.60;;
53801;SDS011;39709;53.334;6.534;2022-11-15T13:17:26;9.60;;;4.47;;
53801;SDS011;39709;53.334;6.534;2022-11-15T13:22:49;7.18;;;3.60;;
53801;SDS011;39709;53.334;6.534;2022-11-15T13:28:02;10.73;;;3.97;;
53801;SDS011;39709;53.334;6.534;2022-11-15T13:33:23;6.28;;;1.83;;
53801;SDS011;39709;53.334;6.534;2022-11-15T13:36:04;8.80;;;2.85;;
53801;SDS011;39709;53.334;6.534;2022-11-15T13:38:39;7.00;;;2.40;;
53801;SDS011;39709;53.334;6.534;2022-11-15T13:41:18;7.80;;;3.00;;
53801;SDS011;39709;53.334;6.534;2022-11-15T13:43:47;8.05;;;2.80;;
53801;SDS011;39709;53.334;6.534;2022-11-15T13:46:18;8.30;;;2.38;;
53801;SDS011;39709;53.334;6.534;2022-11-15T13:48:44;6.75;;;2.30;;
53801;SDS011;39709;53.334;6.534;2022-11-15T13:51:17;8.37;;;2.70;;
53801;SDS011;39709;53.334;6.534;2022-11-15T13:56:59;6.70;;;2.80;;
53801;SDS011;39709;53.334;6.534;2022-11-15T13:59:34;8.18;;;2.92;;
53801;SDS011;39709;53.334;6.534;2022-11-15T14:02:12;8.25;;;2.38;;
53801;SDS011;39709;53.334;6.534;2022-11-15T14:05:15;7.93;;;2.53;;
53801;SDS011;39709;53.334;6.534;2022-11-15T14:07:38;6.78;;;2.10;;
53801;SDS011;39709;53.334;6.534;2022-11-15T14:10:17;7.07;;;2.78;;
53801;SDS011;39709;53.334;6.534;2022-11-15T14:13:28;9.43;;;3.47;;
53801;SDS011;39709;53.334;6.534;2022-11-15T14:16:12;6.75;;;2.72;;
53801;SDS011;39709;53.334;6.534;2022-11-15T14:18:57;7.00;;;2.77;;
53801;SDS011;39709;53.334;6.534;2022-11-15T14:21:23;8.30;;;2.78;;
53801;SDS011;39709;53.334;6.534;2022-11-15T14:23:48;7.77;;;2.73;;
53801;SDS011;39709;53.334;6.534;2022-11-15T14:26:32;9.02;;;2.80;;
53801;SDS011;39709;53.334;6.534;2022-11-15T14:31:53;8.38;;;3.00;;
53801;SDS011;39709;53.334;6.534;2022-11-15T14:34:32;9.43;;;2.50;;
53801;SDS011;39709;53.334;6.534;2022-11-15T14:36:57;7.70;;;2.90;;
53801;SDS011;39709;53.334;6.534;2022-11-15T14:39:23;9.30;;;2.63;;
53801;SDS011;39709;53.334;6.534;2022-11-15T14:41:50;9.48;;;3.22;;
53801;SDS011;39709;53.334;6.534;2022-11-15T14:44:16;8.93;;;2.90;;
53801;SDS011;39709;53.334;6.534;2022-11-15T14:46:43;9.27;;;3.03;;
53801;SDS011;39709;53.334;6.534;2022-11-15T14:49:09;9.13;;;3.17;;
53801;SDS011;39709;53.334;6.534;2022-11-15T14:51:35;8.33;;;3.03;;
53801;SDS011;39709;53.334;6.534;2022-11-15T14:54:00;8.98;;;3.30;;
53801;SDS011;39709;53.334;6.534;2022-11-15T14:56:26;10.17;;;3.37;;
53801;SDS011;39709;53.334;6.534;2022-11-15T14:58:52;10.32;;;3.50;;
53801;SDS011;39709;53.334;6.534;2022-11-15T15:01:21;8.80;;;2.97;;
53801;SDS011;39709;53.334;6.534;2022-11-15T15:03:50;7.97;;;2.73;;
53801;SDS011;39709;53.334;6.534;2022-11-15T15:06:17;8.02;;;2.83;;
53801;SDS011;39709;53.334;6.534;2022-11-15T15:08:43;6.57;;;2.70;;
53801;SDS011;39709;53.334;6.534;2022-11-15T15:11:10;8.52;;;2.90;;
53801;SDS011;39709;53.334;6.534;2022-11-15T15:13:41;6.63;;;2.40;;
53801;SDS011;39709;53.334;6.534;2022-11-15T15:16:07;8.00;;;3.00;;
53801;SDS011;39709;53.334;6.534;2022-11-15T15:18:32;7.88;;;2.50;;
53801;SDS011;39709;53.334;6.534;2022-11-15T15:20:58;6.50;;;2.40;;
53801;SDS011;39709;53.334;6.534;2022-11-15T15:23:31;7.60;;;2.60;;
53801;SDS011;39709;53.334;6.534;2022-11-15T15:25:57;7.10;;;2.97;;
53801;SDS011;39709;53.334;6.534;2022-11-15T15:28:23;9.67;;;3.00;;
53801;SDS011;39709;53.334;6.534;2022-11-15T15:30:49;8.35;;;2.80;;
53801;SDS011;39709;53.334;6.534;2022-11-15T15:33:15;10.73;;;3.03;;
53801;SDS011;39709;53.334;6.534;2022-11-15T15:35:41;6.70;;;2.93;;
53801;SDS011;39709;53.334;6.534;2022-11-15T15:38:13;10.93;;;3.05;;
53801;SDS011;39709;53.334;6.534;2022-11-15T15:40:40;5.95;;;2.47;;
53801;SDS011;39709;53.334;6.534;2022-11-15T15:43:06;7.53;;;2.77;;
53801;SDS011;39709;53.334;6.534;2022-11-15T15:45:34;9.55;;;3.10;;
53801;SDS011;39709;53.334;6.534;2022-11-15T15:48:04;7.45;;;3.15;;
53801;SDS011;39709;53.334;6.534;2022-11-15T15:50:33;10.00;;;3.15;;
53801;SDS011;39709;53.334;6.534;2022-11-15T15:53:00;4.22;;;1.05;;
53801;SDS011;39709;53.334;6.534;2022-11-15T15:55:28;4.73;;;1.10;;
53801;SDS011;39709;53.334;6.534;2022-11-15T15:57:53;5.03;;;1.55;;
53801;SDS011;39709;53.334;6.534;2022-11-15T16:00:20;6.03;;;1.58;;
53801;SDS011;39709;53.334;6.534;2022-11-15T16:02:48;4.38;;;1.08;;
53801;SDS011;39709;53.334;6.534;2022-11-15T16:05:15;9.40;;;3.22;;
53801;SDS011;39709;53.334;6.534;2022-11-15T16:07:40;6.80;;;1.87;;
53801;SDS011;39709;53.334;6.534;2022-11-15T16:12:46;5.40;;;1.77;;
53801;SDS011;39709;53.334;6.534;2022-11-15T16:15:12;8.07;;;3.13;;
53801;SDS011;39709;53.334;6.534;2022-11-15T16:17:39;3.73;;;0.90;;
53801;SDS011;39709;53.334;6.534;2022-11-15T16:20:20;3.60;;;1.05;;
53801;SDS011;39709;53.334;6.534;2022-11-15T16:22:53;7.00;;;2.90;;
53801;SDS011;39709;53.334;6.534;2022-11-15T16:25:19;7.53;;;2.20;;
53801;SDS011;39709;53.334;6.534;2022-11-15T16:27:45;7.73;;;3.73;;
53801;SDS011;39709;53.334;6.534;2022-11-15T16:30:15;6.45;;;3.08;;
53801;SDS011;39709;53.334;6.534;2022-11-15T16:32:42;5.32;;;1.65;;
53801;SDS011;39709;53.334;6.534;2022-11-15T16:35:12;6.40;;;2.20;;
53801;SDS011;39709;53.334;6.534;2022-11-15T16:37:38;5.82;;;2.42;;
53801;SDS011;39709;53.334;6.534;2022-11-15T16:40:28;5.85;;;1.70;;
53801;SDS011;39709;53.334;6.534;2022-11-15T16:42:56;7.60;;;2.40;;
53801;SDS011;39709;53.334;6.534;2022-11-15T16:45:24;7.53;;;2.45;;
53801;SDS011;39709;53.334;6.534;2022-11-15T16:47:51;7.22;;;2.85;;
53801;SDS011;39709;53.334;6.534;2022-11-15T16:50:25;5.90;;;2.42;;
53801;SDS011;39709;53.334;6.534;2022-11-15T16:52:53;5.53;;;1.25;;
53801;SDS011;39709;53.334;6.534;2022-11-15T16:55:21;6.80;;;1.60;;
53801;SDS011;39709;53.334;6.534;2022-11-15T16:57:49;2.50;;;0.88;;
53801;SDS011;39709;53.334;6.534;2022-11-15T17:00:15;5.68;;;1.95;;